createdAt,value
2018-02-08T00:01:28.881Z,19.75
2018-02-08T00:03:55.556Z,21.08
2018-02-08T00:06:22.207Z,20.30
2018-02-08T00:08:48.842Z,21.27
2018-02-08T00:11:15.494Z,20.67
2018-02-08T00:13:42.134Z,21.55
2018-02-08T00:16:08.803Z,20.08
2018-02-08T00:18:35.433Z,21.55
2018-02-08T00:21:02.091Z,21.60
2018-02-08T00:23:28.729Z,22.75
2018-02-08T00:25:55.376Z,21.98
2018-02-08T00:28:22.011Z,21.27
2018-02-08T00:30:48.649Z,21.77
2018-02-08T00:33:15.298Z,21.40
2018-02-08T00:35:41.952Z,23.12
2018-02-08T00:38:08.595Z,19.45
2018-02-08T00:40:35.234Z,20.62
2018-02-08T00:43:01.875Z,20.60
2018-02-08T00:45:28.507Z,19.75
2018-02-08T00:47:55.150Z,22.02
2018-02-08T00:50:21.818Z,21.17
2018-02-08T00:52:48.458Z,20.42
2018-02-08T00:55:15.094Z,20.70
2018-02-08T00:57:41.754Z,20.17
2018-02-08T01:00:08.435Z,20.05
2018-02-08T01:02:35.059Z,22.87
2018-02-08T01:05:01.705Z,21.50
2018-02-08T01:07:28.345Z,20.15
2018-02-08T01:09:54.984Z,20.20
2018-02-08T01:12:21.619Z,20.90
2018-02-08T01:14:48.246Z,20.75
2018-02-08T01:17:14.878Z,21.27
2018-02-08T01:19:41.511Z,20.95
2018-02-08T01:22:08.163Z,22.48
2018-02-08T01:24:34.795Z,21.70
2018-02-08T01:27:01.427Z,21.83
2018-02-08T01:29:28.074Z,21.67
2018-02-08T01:31:54.724Z,20.42
2018-02-08T01:34:21.375Z,22.73
2018-02-08T01:36:48.001Z,21.40
2018-02-08T01:39:14.656Z,21.12
2018-02-08T01:41:41.306Z,22.02
2018-02-08T01:44:07.949Z,21.67
2018-02-08T01:46:34.590Z,21.10
2018-02-08T01:49:01.234Z,21.80
2018-02-08T01:51:27.877Z,21.58
2018-02-08T01:53:54.528Z,22.58
2018-02-08T01:56:21.178Z,21.10
2018-02-08T01:58:47.822Z,22.13
2018-02-08T02:01:14.455Z,20.27
2018-02-08T02:03:41.103Z,21.55
2018-02-08T02:06:07.740Z,23.15
2018-02-08T02:08:34.371Z,21.70
2018-02-08T02:11:01.015Z,23.30
2018-02-08T02:13:27.647Z,21.02
2018-02-08T02:15:54.294Z,20.42
2018-02-08T02:18:20.924Z,21.20
2018-02-08T02:20:47.557Z,21.65
2018-02-08T02:23:14.185Z,23.62
2018-02-08T02:25:40.828Z,21.27
2018-02-08T02:28:07.478Z,21.52
2018-02-08T02:30:34.124Z,20.50
2018-02-08T02:33:00.758Z,19.90
2018-02-08T02:35:27.423Z,20.58
2018-02-08T02:37:54.062Z,21.80
2018-02-08T02:40:20.730Z,21.35
2018-02-08T02:42:47.371Z,20.75
2018-02-08T02:45:14.031Z,20.83
2018-02-08T02:47:40.676Z,20.85
2018-02-08T02:50:07.322Z,21.75
2018-02-08T02:52:33.970Z,22.10
2018-02-08T02:55:00.676Z,21.05
2018-02-08T02:57:27.307Z,20.95
2018-02-08T02:59:55.450Z,21.40
2018-02-08T03:02:22.217Z,20.23
2018-02-08T03:04:48.855Z,21.10
2018-02-08T03:07:15.497Z,21.62
2018-02-08T03:09:42.137Z,20.70
2018-02-08T03:12:08.766Z,21.10
2018-02-08T03:14:35.406Z,19.60
2018-02-08T03:17:02.056Z,21.17
2018-02-08T03:19:28.687Z,22.20
2018-02-08T03:21:55.358Z,21.30
2018-02-08T03:24:22.022Z,21.60
2018-02-08T03:26:48.661Z,22.10
2018-02-08T03:29:15.378Z,23.35
2018-02-08T03:31:42.024Z,22.48
2018-02-08T03:34:08.674Z,21.80
2018-02-08T03:36:35.319Z,24.05
2018-02-08T03:39:01.962Z,21.95
2018-02-08T03:41:28.610Z,26.50
2018-02-08T03:43:55.251Z,26.25
2018-02-08T03:46:21.908Z,30.15
2018-02-08T03:48:48.551Z,25.20
2018-02-08T03:51:15.178Z,24.50
2018-02-08T03:53:41.831Z,21.98
2018-02-08T03:56:08.474Z,24.70
2018-02-08T03:58:35.138Z,22.55
2018-02-08T04:01:01.776Z,21.05
2018-02-08T04:03:28.435Z,25.35
2018-02-08T04:05:55.070Z,21.02
2018-02-08T04:08:21.714Z,23.20
2018-02-08T04:10:48.354Z,22.55
2018-02-08T04:13:15.010Z,21.02
2018-02-08T04:15:41.647Z,20.92
2018-02-08T04:18:08.302Z,22.08
2018-02-08T04:20:34.938Z,20.83
2018-02-08T04:23:01.609Z,22.87
2018-02-08T04:25:28.250Z,22.05
2018-02-08T04:27:54.894Z,22.45
2018-02-08T04:30:21.532Z,22.98
2018-02-08T04:32:48.192Z,22.83
2018-02-08T04:35:14.829Z,24.10
2018-02-08T04:37:41.488Z,22.00
2018-02-08T04:40:14.110Z,23.15
2018-02-08T04:42:46.874Z,23.67
2018-02-08T04:45:19.484Z,22.65
2018-02-08T04:48:02.790Z,24.35
2018-02-08T04:50:29.417Z,21.80
2018-02-08T04:52:56.079Z,22.70
2018-02-08T04:55:22.713Z,21.75
2018-02-08T04:57:49.393Z,24.63
2018-02-08T05:00:16.027Z,23.17
2018-02-08T05:02:42.766Z,22.70
2018-02-08T05:05:09.405Z,23.15
2018-02-08T05:07:36.055Z,21.15
2018-02-08T05:10:02.740Z,22.27
2018-02-08T05:12:29.374Z,20.70
2018-02-08T05:14:56.039Z,20.48
2018-02-08T05:17:22.720Z,21.48
2018-02-08T05:19:49.383Z,22.10
2018-02-08T05:22:16.014Z,19.77
2018-02-08T05:24:42.671Z,22.45
2018-02-08T05:27:09.325Z,22.80
2018-02-08T05:29:35.955Z,22.83
2018-02-08T05:32:02.595Z,19.95
2018-02-08T05:34:29.231Z,21.55
2018-02-08T05:36:55.871Z,20.73
2018-02-08T05:39:22.522Z,22.58
2018-02-08T05:41:49.188Z,22.87
2018-02-08T05:44:15.893Z,22.42
2018-02-08T05:46:42.539Z,22.10
2018-02-08T05:49:09.194Z,22.40
2018-02-08T05:51:35.826Z,23.15
2018-02-08T05:54:02.499Z,23.42
2018-02-08T05:56:29.150Z,23.42
2018-02-08T05:58:55.786Z,22.87
2018-02-08T06:01:22.437Z,23.30
2018-02-08T06:03:49.081Z,22.95
2018-02-08T06:06:15.757Z,32.20
2018-02-08T06:08:42.386Z,39.40
2018-02-08T06:11:09.019Z,33.50
2018-02-08T06:13:35.944Z,30.00
2018-02-08T06:16:02.608Z,26.75
2018-02-08T06:18:29.238Z,25.90
2018-02-08T06:20:55.883Z,26.70
2018-02-08T06:23:22.530Z,24.90
2018-02-08T06:25:49.174Z,26.33
2018-02-08T06:28:16.182Z,27.45
2018-02-08T06:30:42.955Z,26.67
2018-02-08T06:33:09.582Z,27.37
2018-02-08T06:35:36.218Z,27.58
2018-02-08T06:38:02.859Z,30.92
2018-02-08T06:40:29.514Z,27.40
2018-02-08T06:42:56.150Z,26.92
2018-02-08T06:45:22.807Z,29.17
2018-02-08T06:47:49.446Z,32.70
2018-02-08T06:50:16.086Z,28.25
2018-02-08T06:52:42.744Z,29.27
2018-02-08T06:55:09.417Z,27.73
2018-02-08T06:57:36.046Z,27.35
2018-02-08T07:00:02.690Z,26.40
2018-02-08T07:02:29.358Z,28.27
2018-02-08T07:04:55.995Z,27.02
2018-02-08T07:07:22.662Z,26.23
2018-02-08T07:09:49.294Z,27.05
2018-02-08T07:12:15.951Z,26.75
2018-02-08T07:14:42.608Z,28.27
2018-02-08T07:17:09.271Z,25.90
2018-02-08T07:19:35.919Z,27.35
2018-02-08T07:22:02.570Z,25.27
2018-02-08T07:24:29.204Z,26.90
2018-02-08T07:26:55.859Z,26.10
2018-02-08T07:29:22.541Z,27.08
2018-02-08T07:31:49.189Z,26.95
2018-02-08T07:34:15.858Z,27.95
2018-02-08T07:36:42.494Z,26.20
2018-02-08T07:39:09.172Z,25.88
2018-02-08T07:41:35.917Z,26.55
2018-02-08T07:44:02.580Z,27.45
2018-02-08T07:46:29.251Z,26.60
2018-02-08T07:48:55.911Z,23.38
2018-02-08T07:51:22.561Z,25.85
2018-02-08T07:53:49.236Z,27.15
2018-02-08T07:56:16.005Z,23.50
2018-02-08T07:58:42.647Z,26.75
2018-02-08T08:01:09.303Z,26.75
2018-02-08T08:03:35.978Z,25.58
2018-02-08T08:06:02.635Z,26.45
2018-02-08T08:08:29.297Z,25.00
2018-02-08T08:10:56.205Z,24.48
2018-02-08T08:13:23.006Z,24.50
2018-02-08T08:15:49.630Z,25.17
2018-02-08T08:18:16.302Z,25.95
2018-02-08T08:20:42.939Z,26.25
2018-02-08T08:23:09.575Z,25.83
2018-02-08T08:25:36.215Z,29.02
2018-02-08T08:28:02.850Z,27.15
2018-02-08T08:30:29.490Z,26.20
2018-02-08T08:32:56.144Z,26.52
2018-02-08T08:35:22.793Z,26.02
2018-02-08T08:37:49.432Z,26.65
2018-02-08T08:40:16.066Z,26.60
2018-02-08T08:42:42.717Z,27.67
2018-02-08T08:45:09.348Z,25.50
2018-02-08T08:47:36.012Z,26.35
2018-02-08T08:50:02.680Z,26.35
2018-02-08T08:52:29.350Z,28.98
2018-02-08T08:54:56.001Z,29.55
2018-02-08T08:57:22.655Z,28.08
2018-02-08T08:59:49.367Z,25.83
2018-02-08T09:02:16.026Z,28.75
2018-02-08T09:04:42.674Z,29.48
2018-02-08T09:07:09.609Z,28.00
2018-02-08T09:09:36.247Z,27.83
2018-02-08T09:12:02.891Z,27.77
2018-02-08T09:14:29.518Z,30.80
2018-02-08T09:16:56.159Z,28.85
2018-02-08T09:19:22.790Z,28.70
2018-02-08T09:21:49.427Z,29.77
2018-02-08T09:24:16.082Z,29.23
2018-02-08T09:26:42.715Z,30.50
2018-02-08T09:29:09.700Z,30.75
2018-02-08T09:31:36.359Z,29.55
2018-02-08T09:34:03.233Z,30.77
2018-02-08T09:36:29.958Z,28.10
2018-02-08T09:38:56.603Z,28.40
2018-02-08T09:41:23.582Z,30.00
2018-02-08T09:43:50.229Z,29.77
2018-02-08T09:46:17.054Z,30.80
2018-02-08T09:48:43.686Z,28.65
2018-02-08T09:51:10.343Z,31.23
2018-02-08T09:53:36.982Z,29.77
2018-02-08T09:56:03.642Z,36.75
2018-02-08T09:58:30.274Z,32.58
2018-02-08T10:00:56.916Z,32.47
2018-02-08T10:03:23.542Z,31.85
2018-02-08T10:05:50.279Z,32.08
2018-02-08T10:08:16.946Z,32.58
2018-02-08T10:10:43.591Z,34.13
2018-02-08T10:13:10.230Z,30.33
2018-02-08T10:15:37.585Z,29.92
2018-02-08T10:18:04.218Z,32.90
2018-02-08T10:20:30.860Z,33.72
2018-02-08T10:22:57.499Z,33.08
2018-02-08T10:25:24.136Z,31.70
2018-02-08T10:27:50.802Z,32.22
2018-02-08T10:30:17.440Z,34.47
2018-02-08T10:32:44.097Z,33.08
2018-02-08T10:35:10.779Z,34.47
2018-02-08T10:37:37.437Z,36.45
2018-02-08T10:40:04.524Z,35.00
2018-02-08T10:42:31.953Z,37.78
2018-02-08T10:44:58.610Z,36.67
2018-02-08T10:47:25.497Z,35.47
2018-02-08T10:49:52.146Z,35.33
2018-02-08T10:52:18.851Z,34.97
2018-02-08T10:54:45.716Z,36.78
2018-02-08T10:57:12.354Z,36.72
2018-02-08T10:59:38.992Z,37.22
2018-02-08T11:02:05.630Z,41.37
2018-02-08T11:04:32.264Z,41.70
2018-02-08T11:06:59.726Z,39.05
2018-02-08T11:09:26.365Z,39.80
2018-02-08T11:11:53.038Z,39.08
2018-02-08T11:14:19.689Z,41.05
2018-02-08T11:16:46.331Z,41.35
2018-02-08T11:19:12.998Z,39.90
2018-02-08T11:21:39.633Z,39.85
2018-02-08T11:24:06.275Z,37.55
2018-02-08T11:26:32.911Z,38.03
2018-02-08T11:28:59.549Z,39.38
2018-02-08T11:31:26.186Z,38.97
2018-02-08T11:33:52.855Z,38.50
2018-02-08T11:36:19.740Z,38.72
2018-02-08T11:38:46.470Z,38.20
2018-02-08T11:41:13.278Z,39.83
2018-02-08T11:43:40.396Z,40.78
2018-02-08T11:46:07.380Z,37.85
2018-02-08T11:48:35.133Z,39.85
2018-02-08T11:51:02.063Z,39.88
2018-02-08T11:53:29.885Z,38.08
2018-02-08T11:55:56.619Z,39.45
2018-02-08T11:58:23.554Z,38.92
2018-02-08T12:00:50.638Z,40.38
2018-02-08T12:03:17.295Z,41.15
2018-02-08T12:05:44.324Z,38.88
2018-02-08T12:08:11.386Z,39.67
2018-02-08T12:10:38.358Z,38.50
2018-02-08T12:13:05.326Z,38.70
2018-02-08T12:15:32.434Z,38.67
2018-02-08T12:17:59.338Z,39.10
2018-02-08T12:20:27.185Z,40.75
2018-02-08T12:22:54.035Z,41.65
2018-02-08T12:25:21.168Z,40.28
2018-02-08T12:27:48.202Z,38.53
2018-02-08T12:30:15.086Z,36.60
2018-02-08T12:32:42.122Z,34.38
2018-02-08T12:35:09.251Z,34.33
2018-02-08T12:37:36.266Z,35.75
2018-02-08T12:40:04.449Z,33.17
2018-02-08T12:42:31.304Z,32.30
2018-02-08T12:44:58.408Z,33.85
2018-02-08T12:47:25.218Z,35.28
2018-02-08T12:49:52.176Z,34.47
2018-02-08T12:52:23.769Z,32.53
2018-02-08T12:54:51.300Z,33.38
2018-02-08T12:57:18.047Z,36.17
2018-02-08T12:59:45.095Z,35.95
2018-02-08T13:02:11.742Z,34.80
2018-02-08T13:04:38.550Z,32.97
2018-02-08T13:07:05.509Z,33.47
2018-02-08T13:09:32.316Z,32.38
2018-02-08T13:12:00.465Z,37.30
2018-02-08T13:14:27.168Z,34.55
2018-02-08T13:16:53.836Z,37.38
2018-02-08T13:19:20.478Z,33.05
2018-02-08T13:21:47.191Z,35.05
2018-02-08T13:24:14.070Z,35.78
2018-02-08T13:26:40.955Z,34.67
2018-02-08T13:29:07.586Z,35.15
2018-02-08T13:31:52.117Z,36.95
2018-02-08T13:34:18.891Z,35.80
2018-02-08T13:36:45.582Z,36.30
2018-02-08T13:39:16.902Z,34.05
2018-02-08T13:41:43.646Z,38.65
2018-02-08T13:44:10.712Z,56.67
2018-02-08T13:46:37.797Z,34.75
2018-02-08T13:49:18.262Z,38.33
2018-02-08T13:51:50.701Z,36.50
2018-02-08T13:54:38.098Z,37.13
2018-02-08T13:57:16.507Z,35.67
2018-02-08T14:00:01.880Z,37.92
2018-02-08T14:02:28.659Z,37.83
2018-02-08T14:04:55.354Z,39.83
2018-02-08T14:07:22.196Z,37.75
2018-02-08T14:09:49.258Z,36.10
2018-02-08T14:12:16.382Z,44.35
2018-02-08T14:14:43.522Z,36.08
2018-02-08T14:17:10.195Z,36.35
2018-02-08T14:19:36.836Z,33.67
2018-02-08T14:22:03.502Z,36.00
2018-02-08T14:24:30.224Z,37.30
2018-02-08T14:26:56.876Z,36.50
2018-02-08T14:29:23.555Z,34.85
2018-02-08T14:31:50.214Z,35.40
2018-02-08T14:34:16.862Z,37.65
2018-02-08T14:36:44.038Z,35.55
2018-02-08T14:39:11.141Z,35.72
2018-02-08T14:41:37.834Z,36.33
2018-02-08T14:44:04.475Z,36.78
2018-02-08T14:46:31.107Z,34.78
2018-02-08T14:48:57.759Z,37.40
2018-02-08T14:51:24.394Z,35.80
2018-02-08T14:53:51.054Z,37.00
2018-02-08T14:56:17.686Z,36.97
2018-02-08T14:58:44.342Z,37.92
2018-02-08T15:01:10.984Z,39.17
2018-02-08T15:03:37.639Z,38.65
2018-02-08T15:06:04.282Z,36.45
2018-02-08T15:08:30.963Z,37.33
2018-02-08T15:10:57.601Z,37.90
2018-02-08T15:13:24.253Z,36.80
2018-02-08T15:15:50.892Z,39.50
2018-02-08T15:18:17.538Z,39.28
2018-02-08T15:20:44.170Z,40.20
2018-02-08T15:23:10.825Z,39.83
2018-02-08T15:25:38.360Z,39.47
2018-02-08T15:28:05.026Z,38.17
2018-02-08T15:30:31.637Z,41.30
2018-02-08T15:32:58.361Z,41.88
2018-02-08T15:35:24.999Z,41.90
2018-02-08T15:37:51.645Z,40.78
2018-02-08T15:40:18.320Z,43.55
2018-02-08T15:42:44.955Z,42.70
2018-02-08T15:45:11.595Z,41.75
2018-02-08T15:47:38.249Z,40.95
2018-02-08T15:50:04.895Z,42.10
2018-02-08T15:52:31.540Z,43.90
2018-02-08T15:54:58.203Z,42.88
2018-02-08T15:57:24.917Z,39.95
2018-02-08T15:59:51.606Z,41.53
2018-02-08T16:02:18.322Z,42.92
2018-02-08T16:04:45.021Z,41.40
2018-02-08T16:07:11.670Z,43.17
2018-02-08T16:09:38.340Z,41.05
2018-02-08T16:12:04.978Z,41.20
2018-02-08T16:14:31.642Z,43.78
2018-02-08T16:16:58.275Z,43.97
2018-02-08T16:19:24.925Z,41.42
2018-02-08T16:21:51.592Z,41.13
2018-02-08T16:24:18.258Z,44.42
2018-02-08T16:26:44.896Z,41.08
2018-02-08T16:29:11.543Z,42.67
2018-02-08T16:31:38.191Z,44.45
2018-02-08T16:34:07.005Z,43.20
2018-02-08T16:36:33.643Z,43.10
2018-02-08T16:39:00.383Z,40.40
2018-02-08T16:41:27.058Z,39.25
2018-02-08T16:43:53.726Z,40.45
2018-02-08T16:46:20.380Z,41.10
2018-02-08T16:48:47.018Z,38.78
2018-02-08T16:51:13.646Z,40.75
2018-02-08T16:53:40.365Z,38.75
2018-02-08T16:56:07.024Z,40.35
2018-02-08T16:58:33.682Z,40.78
2018-02-08T17:01:00.368Z,39.33
2018-02-08T17:03:26.968Z,40.67
2018-02-08T17:05:53.625Z,38.38
2018-02-08T17:08:20.319Z,42.95
2018-02-08T17:10:46.974Z,42.10
2018-02-08T17:13:13.689Z,40.88
2018-02-08T17:15:40.359Z,42.95
2018-02-08T17:18:06.991Z,43.53
2018-02-08T17:20:33.663Z,42.60
2018-02-08T17:23:00.395Z,42.15
2018-02-08T17:25:27.108Z,41.67
2018-02-08T17:27:53.811Z,42.60
2018-02-08T17:30:20.708Z,42.58
2018-02-08T17:32:47.462Z,44.28
2018-02-08T17:35:14.125Z,41.10
2018-02-08T17:37:40.790Z,43.67
2018-02-08T17:40:07.546Z,42.70
2018-02-08T17:42:34.308Z,45.40
2018-02-08T17:45:01.031Z,47.00
2018-02-08T17:47:27.794Z,42.58
2018-02-08T17:49:54.596Z,44.53
2018-02-08T17:52:21.385Z,41.60
2018-02-08T17:54:48.092Z,42.72
2018-02-08T17:57:14.848Z,44.30
2018-02-08T17:59:41.575Z,45.90
2018-02-08T18:02:08.252Z,46.05
2018-02-08T18:04:35.042Z,42.75
2018-02-08T18:07:01.844Z,44.30
2018-02-08T18:09:28.614Z,41.85
2018-02-08T18:11:55.414Z,41.60
2018-02-08T18:14:22.129Z,44.85
2018-02-08T18:16:48.873Z,41.85
2018-02-08T18:19:15.603Z,40.95
2018-02-08T18:21:42.337Z,42.42
2018-02-08T18:24:09.046Z,41.90
2018-02-08T18:26:35.772Z,40.72
2018-02-08T18:29:02.436Z,40.22
2018-02-08T18:31:29.073Z,44.22
2018-02-08T18:33:55.714Z,41.25
2018-02-08T18:36:22.351Z,42.15
2018-02-08T18:38:48.987Z,42.25
2018-02-08T18:41:15.636Z,40.17
2018-02-08T18:43:42.260Z,42.17
2018-02-08T18:46:08.904Z,42.47
2018-02-08T18:48:35.528Z,43.05
2018-02-08T18:51:02.193Z,42.75
2018-02-08T18:53:28.885Z,41.50
2018-02-08T18:55:55.618Z,40.45
2018-02-08T18:58:22.280Z,40.05
2018-02-08T19:00:48.937Z,42.53
2018-02-08T19:03:15.623Z,40.03
2018-02-08T19:05:42.284Z,41.70
2018-02-08T19:08:08.930Z,41.58
2018-02-08T19:10:35.717Z,41.22
2018-02-08T19:13:02.431Z,39.13
2018-02-08T19:15:29.161Z,44.00
2018-02-08T19:17:55.846Z,41.05
2018-02-08T19:20:22.555Z,42.47
2018-02-08T19:22:49.299Z,41.20
2018-02-08T19:25:16.005Z,40.45
2018-02-08T19:27:42.676Z,44.70
2018-02-08T19:30:09.429Z,40.70
2018-02-08T19:32:36.135Z,43.78
2018-02-08T19:35:02.837Z,42.88
2018-02-08T19:37:29.591Z,40.45
2018-02-08T19:39:56.412Z,43.58
2018-02-08T19:42:23.341Z,41.55
2018-02-08T19:44:50.169Z,41.00
2018-02-08T19:47:16.870Z,41.63
2018-02-08T19:49:43.613Z,42.70
2018-02-08T19:52:10.357Z,43.97
2018-02-08T19:54:37.047Z,39.88
2018-02-08T19:57:03.778Z,43.92
2018-02-08T19:59:30.564Z,42.97
2018-02-08T20:01:57.330Z,42.00
2018-02-08T20:04:24.012Z,42.88
2018-02-08T20:06:50.752Z,40.25
2018-02-08T20:09:17.425Z,40.63
2018-02-08T20:11:44.184Z,40.38
2018-02-08T20:14:26.625Z,42.42
2018-02-08T20:16:53.395Z,40.40
2018-02-08T20:19:20.063Z,41.53
2018-02-08T20:21:46.840Z,40.92
2018-02-08T20:24:13.536Z,43.00
2018-02-08T20:26:40.250Z,42.80
2018-02-08T20:29:06.949Z,42.40
2018-02-08T20:31:33.664Z,43.33
2018-02-08T20:34:00.403Z,42.33
2018-02-08T20:36:27.112Z,42.72
2018-02-08T20:38:53.802Z,43.70
2018-02-08T20:41:20.627Z,41.33
2018-02-08T20:43:47.321Z,45.67
2018-02-08T20:46:14.015Z,44.58
2018-02-08T20:48:40.995Z,41.83
2018-02-08T20:51:07.869Z,42.75
2018-02-08T20:53:34.518Z,45.42
2018-02-08T20:56:01.541Z,42.88
2018-02-08T20:58:28.260Z,44.03
2018-02-08T21:00:55.017Z,46.03
2018-02-08T21:03:21.674Z,45.95
2018-02-08T21:05:48.390Z,42.58
2018-02-08T21:08:15.424Z,42.38
2018-02-08T21:10:42.060Z,45.78
2018-02-08T21:13:08.842Z,42.62
2018-02-08T21:15:35.624Z,45.72
2018-02-08T21:18:02.586Z,46.22
2018-02-08T21:20:29.289Z,42.05
2018-02-08T21:22:56.221Z,43.83
2018-02-08T21:25:24.050Z,43.20
2018-02-08T21:27:50.953Z,44.35
2018-02-08T21:30:17.686Z,44.90
2018-02-08T21:32:44.328Z,42.33
2018-02-08T21:35:11.066Z,42.80
2018-02-08T21:37:38.499Z,44.40
2018-02-08T21:40:05.448Z,44.22
2018-02-08T21:42:32.252Z,41.55
2018-02-08T21:44:59.034Z,43.33
2018-02-08T21:47:25.735Z,43.00
2018-02-08T21:49:52.398Z,43.92
2018-02-08T21:52:19.092Z,46.08
2018-02-08T21:54:45.791Z,45.38
2018-02-08T21:57:12.504Z,45.97
2018-02-08T21:59:39.158Z,45.58
2018-02-08T22:02:05.867Z,45.12
2018-02-08T22:04:32.842Z,46.22
2018-02-08T22:06:59.480Z,43.42
2018-02-08T22:09:26.150Z,41.90
2018-02-08T22:11:53.087Z,41.83
2018-02-08T22:14:19.756Z,44.65
2018-02-08T22:16:46.383Z,44.90
2018-02-08T22:19:13.182Z,44.10
2018-02-08T22:21:39.953Z,47.42
2018-02-08T22:24:06.625Z,47.00
2018-02-08T22:26:33.403Z,44.92
2018-02-08T22:29:00.338Z,47.35
2018-02-08T22:31:26.974Z,46.40
2018-02-08T22:33:53.986Z,43.60
2018-02-08T22:36:20.654Z,46.42
2018-02-08T22:38:47.285Z,48.95
2018-02-08T22:41:13.926Z,45.20
2018-02-08T22:43:40.791Z,46.22
2018-02-08T22:46:07.472Z,43.65
2018-02-08T22:48:34.324Z,42.05
2018-02-08T22:51:00.954Z,46.00
2018-02-08T22:53:27.588Z,44.10
2018-02-08T22:55:54.224Z,48.35
2018-02-08T22:58:20.938Z,43.78
2018-02-08T23:00:47.571Z,45.78
2018-02-08T23:03:14.215Z,45.12
2018-02-08T23:05:40.876Z,41.85
2018-02-08T23:08:07.935Z,44.35
2018-02-08T23:10:34.701Z,45.67
2018-02-08T23:13:01.330Z,42.67
2018-02-08T23:15:28.074Z,46.83
2018-02-08T23:17:54.706Z,44.38
2018-02-08T23:20:21.559Z,41.95
2018-02-08T23:22:48.186Z,45.53
2018-02-08T23:25:14.824Z,47.13
2018-02-08T23:27:41.524Z,45.30
2018-02-08T23:30:08.170Z,49.00
2018-02-08T23:32:34.807Z,46.72
2018-02-08T23:35:01.538Z,46.55
2018-02-08T23:37:28.904Z,47.85
2018-02-08T23:39:57.822Z,45.65
2018-02-08T23:42:24.461Z,48.15
2018-02-08T23:44:51.298Z,47.95
2018-02-08T23:47:18.622Z,43.63
2018-02-08T23:49:47.316Z,45.33
2018-02-08T23:52:13.959Z,42.78
2018-02-08T23:54:40.857Z,44.58
2018-02-08T23:57:07.954Z,47.05
2018-02-08T23:59:34.866Z,48.08
